Time;durP1;ratioP1;P1;durP2;ratioP2;P2;SDS_P1;SDS_P2;PMS_P1;PMS_P2;Temp;Humidity;BMP_temperature;BMP_pressure;BME280_temperature;BME280_humidity;BME280_pressure;Samples;Min_cycle;Max_cycle;Signal;HPM_P1;HPM_P2
2022/05/24 00:01:16;;;;;;;3.47;1.92;;;;;;;11.20;70.89;96131.38;5114205;28;20481;-62
2022/05/24 00:03:41;;;;;;;4.05;1.70;;;;;;;11.12;70.92;96123.88;5114193;28;20032;-63
2022/05/24 00:06:07;;;;;;;2.95;1.80;;;;;;;11.08;70.95;96123.16;5114220;28;20039;-62
2022/05/24 00:08:33;;;;;;;2.80;1.70;;;;;;;11.09;70.98;96130.13;5114139;28;20470;-62
2022/05/24 00:10:59;;;;;;;1.67;1.58;;;;;;;11.10;71.01;96125.72;5113972;28;20362;-60
2022/05/24 00:13:25;;;;;;;3.58;1.75;;;;;;;11.06;71.35;96114.56;5114002;28;20031;-60
2022/05/24 00:15:51;;;;;;;4.28;2.00;;;;;;;10.96;72.01;96119.34;5113949;28;20028;-63
2022/05/24 00:18:20;;;;;;;4.30;2.33;;;;;;;10.94;71.96;96125.56;5113914;28;20027;-62
2022/05/24 00:20:51;;;;;;;8.07;1.80;;;;;;;10.91;71.90;96123.97;5113149;28;20529;-60
2022/05/24 00:23:19;;;;;;;7.00;1.70;;;;;;;10.92;71.53;96127.41;5113690;28;20023;-62
2022/05/24 00:25:49;;;;;;;1.70;1.60;;;;;;;10.91;71.71;96123.97;5113776;27;20023;-62
2022/05/24 00:28:16;;;;;;;2.25;1.70;;;;;;;10.89;71.56;96123.16;5113839;28;20020;-62
2022/05/24 00:30:44;;;;;;;3.25;2.20;;;;;;;10.84;71.50;96127.78;5117550;27;20065;-62
2022/05/24 00:33:10;;;;;;;2.65;1.77;;;;;;;10.84;71.82;96127.78;5113756;28;20062;-61
2022/05/24 00:35:36;;;;;;;3.80;2.78;;;;;;;10.82;71.54;96125.22;5113789;28;20147;-60
2022/05/24 00:38:02;;;;;;;3.85;1.80;;;;;;;10.80;71.09;96127.06;5113631;28;20099;-60
2022/05/24 00:40:33;;;;;;;3.72;1.80;;;;;;;10.76;71.46;96120.28;5113594;28;20020;-62
2022/05/24 00:43:03;;;;;;;2.08;1.80;;;;;;;10.73;71.21;96118.66;5113597;28;20119;-60
2022/05/24 00:45:36;;;;;;;3.83;2.05;;;;;;;10.66;71.33;96113.75;5113553;28;20031;-60
2022/05/24 00:48:07;;;;;;;2.15;1.63;;;;;;;10.64;71.63;96115.59;5113512;28;20024;-63
2022/05/24 00:50:37;;;;;;;5.00;1.73;;;;;;;10.58;71.96;96117.56;5113546;28;20077;-61
2022/05/24 00:53:21;;;;;;;6.18;1.80;;;;;;;10.54;72.45;96123.00;5113538;28;20035;-60
2022/05/24 00:55:53;;;;;;;3.33;1.88;;;;;;;10.49;72.96;96118.84;5113459;28;20035;-61
2022/05/24 00:58:23;;;;;;;3.33;1.90;;;;;;;10.47;73.00;96123.28;5113392;28;20026;-62
2022/05/24 01:00:49;;;;;;;2.87;1.77;;;;;;;10.40;73.01;96120.97;5113366;28;20024;-64
2022/05/24 01:03:15;;;;;;;2.03;1.92;;;;;;;10.42;72.56;96119.97;5113354;28;20280;-62
2022/05/24 01:05:43;;;;;;;4.85;1.88;;;;;;;10.43;72.65;96120.81;5113457;28;20153;-63
2022/05/24 01:08:10;;;;;;;1.80;1.70;;;;;;;10.42;73.00;96122.59;5113378;28;20107;-61
2022/05/24 01:10:45;;;;;;;2.63;1.83;;;;;;;10.40;73.03;96113.13;5113307;28;20051;-60
2022/05/24 01:13:23;;;;;;;6.22;2.00;;;;;;;10.40;73.73;96118.34;5113369;28;20354;-61
2022/05/24 01:15:51;;;;;;;6.40;2.10;;;;;;;10.43;73.82;96120.81;5113408;28;20028;-63
2022/05/24 01:18:18;;;;;;;2.63;1.90;;;;;;;10.45;73.79;96119.00;5113223;28;20028;-60
2022/05/24 01:20:49;;;;;;;2.80;1.90;;;;;;;10.45;74.04;96116.41;5113321;28;20020;-61
2022/05/24 01:23:32;;;;;;;3.33;2.22;;;;;;;10.44;73.84;96117.28;5113279;28;20111;-63
2022/05/24 01:26:27;;;;;;;6.97;1.90;;;;;;;10.52;73.88;96114.38;5113131;28;20024;-61
2022/05/24 01:28:56;;;;;;;4.50;1.88;;;;;;;10.55;74.33;96109.00;5113186;28;20393;-62
2022/05/24 01:31:22;;;;;;;3.70;2.08;;;;;;;10.60;74.35;96115.72;5113941;28;20127;-60
2022/05/24 01:36:36;;;;;;;3.65;2.00;;;;;;;10.59;73.54;96106.19;5117279;28;20084;-63
2022/05/24 01:39:07;;;;;;;3.63;1.97;;;;;;;10.59;73.41;96106.19;5117028;28;20043;-61
2022/05/24 01:41:38;;;;;;;4.70;2.10;;;;;;;10.59;74.92;96111.41;5116928;28;20721;-61
2022/05/24 01:44:04;;;;;;;3.30;2.20;;;;;;;10.64;74.13;96107.75;5117166;28;20110;-64
2022/05/24 01:46:50;;;;;;;4.75;2.20;;;;;;;10.61;74.23;96116.59;5116819;28;20024;-61
2022/05/24 01:49:24;;;;;;;4.20;2.20;;;;;;;10.59;75.42;96114.03;5116851;27;20035;-60
2022/05/24 01:51:57;;;;;;;3.50;2.42;;;;;;;10.55;74.44;96119.47;5116719;28;20024;-61
2022/05/24 01:54:23;;;;;;;4.07;2.28;;;;;;;10.55;74.54;96111.63;5116693;28;20028;-63
2022/05/24 01:56:59;;;;;;;5.22;2.30;;;;;;;10.52;74.42;96110.00;5116533;28;20027;-61
2022/05/24 01:59:26;;;;;;;5.25;2.15;;;;;;;10.41;75.33;96120.06;5116580;28;20028;-60
2022/05/24 02:01:55;;;;;;;3.95;1.75;;;;;;;10.35;75.26;96121.16;5116413;28;20062;-62
2022/05/24 02:04:22;;;;;;;2.72;2.33;;;;;;;10.29;75.57;96116.22;5116479;28;20106;-64
2022/05/24 02:07:08;;;;;;;6.22;2.33;;;;;;;10.32;75.24;96118.69;5116450;28;20016;-62
2022/05/24 02:09:37;;;;;;;2.78;1.85;;;;;;;10.32;75.20;96118.69;5115834;28;20051;-63
2022/05/24 02:12:07;;;;;;;2.40;2.20;;;;;;;10.24;75.39;96122.47;5115049;28;20397;-63
2022/05/24 02:14:37;;;;;;;5.05;2.13;;;;;;;10.24;75.08;96122.47;5116641;28;20028;-63
2022/05/24 02:17:17;;;;;;;2.53;2.08;;;;;;;10.20;75.02;96128.75;5116295;27;20034;-62
2022/05/24 02:19:48;;;;;;;4.10;2.10;;;;;;;10.24;75.38;96121.66;5116316;28;20031;-61
2022/05/24 02:22:20;;;;;;;5.93;2.03;;;;;;;10.27;75.27;96125.88;5116152;28;20040;-60
2022/05/24 02:24:54;;;;;;;3.08;2.45;;;;;;;10.31;74.84;96124.84;5116133;28;20016;-63
2022/05/24 02:27:19;;;;;;;2.67;2.22;;;;;;;10.22;75.24;96128.69;5116305;28;20080;-62
2022/05/24 02:29:45;;;;;;;3.35;2.10;;;;;;;10.19;75.19;96123.59;5116024;28;20035;-61
2022/05/24 02:32:10;;;;;;;6.18;2.90;;;;;;;10.16;76.09;96126.34;5115666;28;20036;-62
2022/05/24 02:34:37;;;;;;;2.03;1.75;;;;;;;10.10;75.59;96135.28;5115839;28;20023;-64
2022/05/24 02:37:03;;;;;;;2.17;1.67;;;;;;;10.13;75.57;96136.91;5115804;28;20027;-63
2022/05/24 02:39:29;;;;;;;6.57;1.95;;;;;;;10.14;75.45;96134.25;5115868;28;20103;-64
2022/05/24 02:41:54;;;;;;;2.35;1.92;;;;;;;10.16;74.90;96142.88;5115628;28;20561;-63
2022/05/24 02:44:20;;;;;;;5.60;2.13;;;;;;;10.16;75.05;96145.50;5114812;28;20435;-60
2022/05/24 02:46:47;;;;;;;6.10;2.50;;;;;;;10.15;75.12;96154.25;5115708;28;20034;-63
2022/05/24 02:49:13;;;;;;;3.40;2.15;;;;;;;10.16;75.42;96147.25;5115535;28;20016;-64
2022/05/24 02:51:41;;;;;;;4.65;2.20;;;;;;;10.21;76.56;96143.53;5115599;28;20073;-60
2022/05/24 02:54:07;;;;;;;7.95;2.45;;;;;;;10.22;75.79;96137.41;5115559;27;20378;-63
2022/05/24 02:56:34;;;;;;;2.70;2.40;;;;;;;10.21;75.67;96137.47;5115539;27;20500;-64
2022/05/24 02:58:59;;;;;;;7.63;2.28;;;;;;;10.16;75.28;96140.28;5115460;28;20473;-63
2022/05/24 03:01:27;;;;;;;2.30;2.10;;;;;;;10.16;75.25;96142.88;5115389;28;20034;-63
2022/05/24 03:03:55;;;;;;;3.03;2.10;;;;;;;10.21;74.60;96147.91;5115217;28;20035;-61
2022/05/24 03:06:22;;;;;;;4.07;2.17;;;;;;;10.24;73.98;96150.41;5115310;28;20458;-61
2022/05/24 03:14:14;;;;;;;2.47;2.28;;;;;;;10.14;74.96;96152.53;5115507;28;20084;-64
2022/05/24 03:14:21;;;;;;;3.50;2.05;;;;;;;10.21;75.07;96148.75;5115257;28;20092;-62
2022/05/24 03:16:49;;;;;;;3.30;2.25;;;;;;;10.24;74.69;96159.06;5115082;28;20119;-61
2022/05/24 03:19:15;;;;;;;3.65;2.28;;;;;;;10.19;74.97;96160.19;5115104;28;20080;-61
2022/05/24 03:21:43;;;;;;;2.53;1.80;;;;;;;10.17;74.72;96157.63;5114845;28;20018;-63
2022/05/24 03:24:09;;;;;;;5.45;2.05;;;;;;;10.16;74.59;96158.56;5114827;28;20140;-63
2022/05/24 03:26:36;;;;;;;2.78;1.95;;;;;;;10.15;75.03;96159.50;5114838;27;20031;-63
2022/05/24 03:29:02;;;;;;;5.32;2.75;;;;;;;10.05;76.04;96160.78;5114978;28;20073;-63
2022/05/24 03:31:27;;;;;;;3.75;2.40;;;;;;;10.08;76.60;96171.09;5114650;28;20040;-61
2022/05/24 03:33:53;;;;;;;2.42;2.22;;;;;;;10.12;77.04;96167.47;5113532;28;20517;-61
2022/05/24 03:36:22;;;;;;;2.10;2.00;;;;;;;10.24;76.73;96164.31;5114646;28;20016;-63
2022/05/24 03:38:47;;;;;;;2.70;1.90;;;;;;;10.44;76.47;96166.97;5114647;28;20030;-63
2022/05/24 03:41:13;;;;;;;4.85;2.30;;;;;;;10.68;75.66;96183.41;5114686;28;20011;-63
2022/05/24 03:43:39;;;;;;;2.22;1.92;;;;;;;11.09;75.11;96174.59;5114484;28;20084;-61
2022/05/24 03:46:08;;;;;;;2.35;1.80;;;;;;;11.46;72.78;96171.16;5114443;28;20024;-61
2022/05/24 03:48:35;;;;;;;2.45;1.80;;;;;;;11.82;71.02;96177.34;5114532;28;20058;-62
2022/05/24 03:51:02;;;;;;;8.30;1.73;;;;;;;12.18;70.55;96179.09;5114405;28;20069;-63
2022/05/24 03:53:28;;;;;;;2.55;1.48;;;;;;;12.62;69.76;96177.72;5114477;28;20046;-60
2022/05/24 03:55:54;;;;;;;4.20;1.63;;;;;;;13.12;68.34;96175.13;5114284;28;20047;-61
2022/05/24 03:58:21;;;;;;;3.20;1.52;;;;;;;13.60;66.70;96178.72;5114262;28;20065;-60
2022/05/24 04:00:46;;;;;;;3.60;1.35;;;;;;;14.13;64.71;96175.75;5114294;28;20489;-60
2022/05/24 04:03:13;;;;;;;2.88;1.67;;;;;;;14.59;63.26;96169.56;5114099;28;20055;-61
2022/05/24 04:05:40;;;;;;;1.75;1.17;;;;;;;14.98;62.13;96174.28;5114193;28;20042;-61
2022/05/24 04:08:06;;;;;;;1.48;1.38;;;;;;;15.36;60.31;96173.72;5113975;28;20557;-64
2022/05/24 04:10:33;;;;;;;1.48;1.27;;;;;;;15.69;59.63;96163.72;5113970;28;20381;-62
2022/05/24 04:13:00;;;;;;;1.70;1.40;;;;;;;15.98;59.31;96173.34;5113962;28;20028;-64
2022/05/24 04:15:27;;;;;;;3.03;1.27;;;;;;;16.40;58.72;96179.34;5114083;28;20031;-61
2022/05/24 04:17:54;;;;;;;2.03;1.40;;;;;;;16.82;58.49;96180.13;5114072;28;20522;-61
2022/05/24 04:20:21;;;;;;;2.45;1.40;;;;;;;17.23;57.03;96179.03;5113858;28;20473;-61
2022/05/24 04:22:47;;;;;;;1.30;1.20;;;;;;;17.59;56.01;96173.03;5113688;28;20024;-61
2022/05/24 04:25:14;;;;;;;3.38;1.60;;;;;;;17.91;55.42;96173.31;5113634;28;20042;-60
2022/05/24 04:27:40;;;;;;;2.30;1.23;;;;;;;18.25;55.27;96174.44;5113760;28;20140;-61
2022/05/24 04:30:08;;;;;;;1.70;1.23;;;;;;;18.51;54.44;96176.94;5113709;28;20032;-63
2022/05/24 04:32:34;;;;;;;2.15;1.30;;;;;;;18.81;53.68;96184.31;5113301;28;20046;-63
2022/05/24 04:34:59;;;;;;;2.50;1.38;;;;;;;19.13;53.46;96181.94;5113813;28;20028;-60
2022/05/24 04:37:26;;;;;;;1.67;1.13;;;;;;;19.40;53.07;96178.06;5113758;28;20077;-62
2022/05/24 04:39:52;;;;;;;1.52;1.35;;;;;;;19.67;52.07;96185.63;5113584;28;20024;-63
2022/05/24 04:42:24;;;;;;;2.67;1.63;;;;;;;19.71;51.04;96188.88;5113458;28;20027;-63
2022/05/24 04:44:58;;;;;;;9.48;1.85;;;;;;;19.58;52.83;96189.03;5113545;28;20051;-63
2022/05/24 04:47:28;;;;;;;2.00;1.40;;;;;;;19.89;51.71;96177.72;5113660;28;20065;-60
2022/05/24 04:49:57;;;;;;;2.00;1.40;;;;;;;20.14;49.55;96178.41;5112318;28;20460;-60
2022/05/24 04:52:25;;;;;;;4.03;1.15;;;;;;;20.20;49.38;96185.88;5113410;28;20384;-61
2022/05/24 04:54:53;;;;;;;6.80;1.33;;;;;;;20.49;49.46;96201.16;5113440;28;20015;-61
2022/05/24 04:57:21;;;;;;;2.60;1.50;;;;;;;20.66;50.48;96205.06;5113393;28;20034;-61
2022/05/24 04:59:47;;;;;;;5.03;1.98;;;;;;;20.87;49.98;96195.38;5113404;28;20080;-61
2022/05/24 05:02:13;;;;;;;4.75;1.80;;;;;;;20.76;48.59;96188.31;5113366;28;20465;-61
2022/05/24 05:04:39;;;;;;;1.98;1.38;;;;;;;20.49;49.01;96189.69;5113381;28;20019;-62
2022/05/24 05:07:05;;;;;;;4.88;1.77;;;;;;;20.23;50.21;96187.41;5115699;28;20051;-60
2022/05/24 05:09:34;;;;;;;5.28;1.85;;;;;;;20.33;50.30;96191.84;5117668;28;20016;-60
2022/05/24 05:12:08;;;;;;;9.98;2.33;;;;;;;20.66;48.90;96189.13;5117710;28;20400;-61
2022/05/24 05:14:36;;;;;;;11.50;1.77;;;;;;;20.61;48.50;96190.47;5117535;28;20016;-60
2022/05/24 05:17:02;;;;;;;2.72;1.67;;;;;;;20.75;51.65;96191.97;5117443;28;20130;-62
2022/05/24 05:19:29;;;;;;;4.90;1.73;;;;;;;20.76;50.54;96180.34;5117346;28;20016;-63
2022/05/24 05:21:58;;;;;;;6.90;1.65;;;;;;;20.80;49.89;96187.13;5115831;28;20035;-62
2022/05/24 05:24:26;;;;;;;3.03;1.50;;;;;;;21.24;49.52;96194.91;5117300;28;20023;-62
2022/05/24 05:26:52;;;;;;;4.18;1.58;;;;;;;21.74;48.59;96189.72;5116072;28;20035;-61
2022/05/24 05:31:16;;;;;;;5.75;1.67;;;;;;;22.10;47.58;96184.78;5117126;28;20023;-60
2022/05/24 05:32:04;;;;;;;4.70;1.42;;;;;;;22.46;46.53;96187.69;5116897;28;20048;-60
2022/05/24 05:34:30;;;;;;;2.22;1.70;;;;;;;22.71;46.60;96189.94;5116972;28;20031;-62
2022/05/24 05:36:57;;;;;;;4.65;1.67;;;;;;;22.97;45.87;96187.47;5117064;28;20114;-60
2022/05/24 05:39:24;;;;;;;5.15;2.22;;;;;;;23.35;46.23;96191.97;5117035;28;20115;-60
2022/05/24 05:41:52;;;;;;;10.52;2.03;;;;;;;23.49;44.22;96182.69;5116845;28;20031;-60
2022/05/24 05:44:18;;;;;;;3.72;1.85;;;;;;;23.63;43.60;96184.00;5116711;28;20036;-60
2022/05/24 05:46:44;;;;;;;5.63;1.52;;;;;;;23.88;40.65;96188.78;5116895;28;20445;-60
2022/05/24 05:49:11;;;;;;;3.75;1.63;;;;;;;24.18;39.17;96190.28;5116703;28;20099;-61
2022/05/24 05:51:41;;;;;;;1.75;1.23;;;;;;;24.51;37.69;96203.09;5116707;28;20511;-59
2022/05/24 05:54:07;;;;;;;6.07;1.33;;;;;;;24.79;37.35;96202.97;5116735;28;20035;-60
2022/05/24 05:56:33;;;;;;;6.32;1.48;;;;;;;25.08;36.74;96201.00;5116758;28;20023;-60
2022/05/24 05:58:58;;;;;;;6.28;1.52;;;;;;;25.33;36.07;96196.63;5116584;28;20023;-59
2022/05/24 06:01:31;;;;;;;3.28;1.42;;;;;;;25.53;36.22;96200.88;5116704;28;20031;-60
2022/05/24 06:04:01;;;;;;;6.72;1.30;;;;;;;25.72;36.07;96198.00;5116465;28;20039;-62
2022/05/24 06:06:32;;;;;;;4.55;1.33;;;;;;;25.88;36.13;96201.69;5116506;28;20023;-62
2022/05/24 06:08:58;;;;;;;2.90;1.35;;;;;;;25.76;35.55;96201.16;5116436;28;20393;-62
2022/05/24 06:11:24;;;;;;;7.57;1.55;;;;;;;25.81;35.32;96198.84;5115178;28;20042;-61
2022/05/24 06:13:51;;;;;;;2.60;1.23;;;;;;;26.03;35.78;96199.22;5116386;28;20069;-61
2022/05/24 06:16:18;;;;;;;1.88;1.10;;;;;;;26.19;35.60;96200.25;5116286;27;20019;-61
2022/05/24 06:18:43;;;;;;;4.47;1.67;;;;;;;26.28;34.80;96206.47;5114996;27;20140;-61
2022/05/24 06:21:14;;;;;;;4.65;1.30;;;;;;;26.43;34.25;96204.00;5116269;28;20536;-61
2022/05/24 06:23:41;;;;;;;4.13;1.60;;;;;;;26.69;33.03;96205.66;5116080;28;20101;-61
2022/05/24 06:26:09;;;;;;;7.38;1.67;;;;;;;26.85;33.13;96199.47;5116144;28;20381;-62
2022/05/24 06:28:35;;;;;;;2.67;1.25;;;;;;;26.95;31.74;96200.13;5115994;28;20099;-62
2022/05/24 06:31:04;;;;;;;4.68;1.63;;;;;;;26.78;32.23;96201.97;5115704;28;20111;-61
2022/05/24 06:33:31;;;;;;;4.63;1.23;;;;;;;26.84;33.29;96209.34;5115980;28;20045;-61
2022/05/24 06:35:58;;;;;;;5.90;1.30;;;;;;;26.88;33.11;96208.00;5115348;28;20126;-60
2022/05/24 06:38:24;;;;;;;6.20;1.70;;;;;;;26.79;34.33;96211.69;5115367;28;20378;-61
2022/05/24 06:40:50;;;;;;;6.22;1.65;;;;;;;26.51;33.24;96213.91;5115780;28;20145;-60
2022/05/24 06:43:16;;;;;;;3.47;1.55;;;;;;;26.49;32.51;96220.25;5115592;28;20492;-61
2022/05/24 06:45:42;;;;;;;6.53;1.90;;;;;;;26.64;33.30;96222.28;5115739;28;20377;-61
2022/05/24 06:48:15;;;;;;;3.15;1.40;;;;;;;26.96;32.95;96215.19;5115787;28;20039;-61
2022/05/24 06:50:42;;;;;;;5.57;1.52;;;;;;;27.19;31.67;96219.91;5115690;28;20067;-62
2022/05/24 06:53:10;;;;;;;4.90;1.70;;;;;;;27.09;31.65;96222.75;5115607;28;20024;-61
2022/05/24 06:55:37;;;;;;;4.65;1.50;;;;;;;26.65;33.94;96212.38;5115562;28;20022;-60
2022/05/24 06:58:03;;;;;;;5.80;1.60;;;;;;;26.19;34.93;96211.81;5115441;28;20023;-63
2022/05/24 07:03:15;;;;;;;5.00;2.10;;;;;;;25.16;34.55;96202.91;5115579;28;20550;-61
2022/05/24 07:05:43;;;;;;;4.45;1.95;;;;;;;24.96;37.97;96203.94;5115398;28;20512;-61
2022/05/24 07:08:10;;;;;;;8.48;2.25;;;;;;;24.94;36.78;96205.94;5115200;27;20028;-62
2022/05/24 07:10:38;;;;;;;5.95;2.08;;;;;;;25.10;37.17;96207.88;5115172;28;20046;-62
2022/05/24 07:13:21;;;;;;;8.90;2.30;;;;;;;25.38;34.59;96206.00;5115133;28;20054;-62
2022/05/24 07:15:50;;;;;;;7.32;2.38;;;;;;;25.67;35.60;96204.84;5115129;28;20050;-60
2022/05/24 07:18:16;;;;;;;5.57;2.30;;;;;;;25.87;34.08;96205.38;5115174;28;20038;-62
2022/05/24 07:20:42;;;;;;;5.93;2.03;;;;;;;25.93;34.36;96211.94;5113829;28;20114;-60
2022/05/24 07:23:14;;;;;;;8.55;2.28;;;;;;;25.99;36.00;96219.31;5114829;28;20036;-60
2022/05/24 07:25:41;;;;;;;8.40;2.50;;;;;;;26.09;33.85;96209.28;5114911;28;20032;-61
2022/05/24 07:28:09;;;;;;;6.05;1.80;;;;;;;26.46;35.82;96209.03;5114781;28;20031;-60
2022/05/24 07:30:35;;;;;;;9.55;2.38;;;;;;;26.77;33.77;96208.34;5114488;28;20074;-60
2022/05/24 07:33:01;;;;;;;12.88;2.95;;;;;;;26.99;31.56;96208.69;5114461;28;20068;-62
2022/05/24 07:35:28;;;;;;;7.10;2.67;;;;;;;26.67;32.68;96211.19;5114129;28;20066;-60
2022/05/24 07:37:54;;;;;;;4.10;2.13;;;;;;;26.56;34.00;96204.34;5114781;27;20024;-62
2022/05/24 07:45:56;;;;;;;5.95;2.00;;;;;;;26.76;34.89;96195.97;5114806;28;20088;-61
2022/05/24 07:48:23;;;;;;;9.18;2.30;;;;;;;26.72;33.31;96198.13;5114421;28;20461;-61
2022/05/24 07:50:51;;;;;;;9.50;2.28;;;;;;;26.48;33.82;96194.44;5113113;28;20043;-63
2022/05/24 07:53:18;;;;;;;7.32;2.17;;;;;;;26.40;33.27;96190.94;5114569;28;20015;-61
2022/05/24 07:55:44;;;;;;;5.05;2.38;;;;;;;26.22;33.55;96191.91;5114387;28;20057;-63
2022/05/24 07:58:12;;;;;;;11.77;2.65;;;;;;;26.17;35.19;96192.41;5114219;28;20024;-62
2022/05/24 08:00:42;;;;;;;6.03;2.00;;;;;;;26.13;36.23;96196.41;5114173;28;20465;-62
2022/05/24 08:03:07;;;;;;;5.65;2.17;;;;;;;26.26;35.62;96195.91;5114036;28;20038;-61
2022/05/24 08:05:35;;;;;;;6.63;2.10;;;;;;;26.67;35.57;96200.47;5114191;28;20106;-60
2022/05/24 08:08:02;;;;;;;11.80;2.70;;;;;;;26.86;34.98;96199.31;5114059;28;20027;-63
2022/05/24 08:10:30;;;;;;;5.38;2.10;;;;;;;27.05;34.97;96199.09;5114076;28;20022;-63
2022/05/24 08:13:05;;;;;;;6.97;2.20;;;;;;;26.94;32.07;96193.06;5113947;28;20027;-60
2022/05/24 08:15:31;;;;;;;3.53;2.17;;;;;;;26.70;33.19;96188.59;5114017;28;20050;-61
2022/05/24 08:17:57;;;;;;;11.98;2.60;;;;;;;26.78;32.58;96193.94;5113995;28;20032;-63
2022/05/24 08:20:23;;;;;;;7.97;2.40;;;;;;;26.71;33.31;96190.25;5113889;28;20431;-61
2022/05/24 08:22:49;;;;;;;5.93;2.25;;;;;;;26.81;32.55;96190.06;5113757;28;20026;-62
2022/05/24 08:25:16;;;;;;;3.75;1.95;;;;;;;26.49;32.96;96195.31;5113728;28;20024;-60
2022/05/24 08:27:42;;;;;;;8.93;2.28;;;;;;;26.08;35.84;96191.53;5113791;28;20068;-61
2022/05/24 08:30:11;;;;;;;8.73;2.70;;;;;;;26.23;35.48;96189.06;5112589;28;20031;-60
2022/05/24 08:32:37;;;;;;;5.97;2.17;;;;;;;26.14;35.66;96194.56;5113435;28;20120;-60
2022/05/24 08:35:05;;;;;;;7.13;2.80;;;;;;;25.90;37.69;96196.19;5113639;28;20469;-63
2022/05/24 08:37:31;;;;;;;14.15;2.63;;;;;;;25.83;36.64;96196.81;5113675;28;20060;-63
2022/05/24 08:39:59;;;;;;;4.25;2.20;;;;;;;25.71;36.75;96190.94;5113662;28;20487;-62
2022/05/24 08:42:55;;;;;;;4.53;2.40;;;;;;;25.60;35.36;96194.78;5112854;28;20118;-60
2022/05/24 08:48:36;;;;;;;3.40;2.38;;;;;;;25.54;36.21;96183.81;5113983;28;20027;-60
2022/05/24 08:51:13;;;;;;;4.88;2.33;;;;;;;25.20;36.63;96189.03;5100622;28;20074;-60
2022/05/24 08:53:45;;;;;;;9.90;2.78;;;;;;;25.01;38.47;96183.91;5113595;28;20114;-60
2022/05/24 08:56:26;;;;;;;7.97;2.30;;;;;;;24.93;38.56;96179.34;5113558;28;20024;-63
2022/05/24 08:59:26;;;;;;;6.63;2.20;;;;;;;25.30;40.95;96185.38;5113595;28;20026;-60
2022/05/24 09:02:12;;;;;;;10.37;2.23;;;;;;;25.44;37.00;96186.63;5113301;28;20031;-60
2022/05/24 09:04:39;;;;;;;7.22;2.40;;;;;;;25.41;38.32;96186.94;5070664;28;20174;-61
2022/05/24 09:07:36;;;;;;;11.50;2.65;;;;;;;25.40;36.30;96191.47;5070667;28;20086;-61
2022/05/24 09:10:08;;;;;;;6.07;2.47;;;;;;;25.27;37.82;96186.56;5070685;28;20064;-62
2022/05/24 09:13:01;;;;;;;9.25;2.53;;;;;;;25.23;36.88;96196.72;5070785;28;20036;-60
2022/05/24 09:16:14;;;;;;;6.10;2.65;;;;;;;25.32;39.75;96188.75;5070642;28;20059;-61
2022/05/24 09:18:58;;;;;;;4.30;2.25;;;;;;;25.49;40.99;96189.66;5070638;28;20233;-62
2022/05/24 09:21:28;;;;;;;5.93;2.42;;;;;;;25.63;41.31;96185.56;5070654;28;20518;-60
2022/05/24 09:24:00;;;;;;;;;;;;;;;25.46;37.54;96188.16;5070918;28;20028;-60
2022/05/24 09:26:26;;;;;;;6.55;2.50;;;;;;;25.35;38.07;96191.94;5070671;28;19946;-61
2022/05/24 09:28:58;;;;;;;6.15;2.13;;;;;;;25.56;40.92;96185.34;5070588;28;20025;-62
2022/05/24 09:31:48;;;;;;;7.95;2.50;;;;;;;25.81;39.10;96179.25;5070357;28;20052;-60
2022/05/24 09:34:25;;;;;;;6.50;2.42;;;;;;;25.94;37.29;96187.66;5070530;28;20035;-60
2022/05/24 09:36:57;;;;;;;5.72;2.33;;;;;;;26.02;37.41;96192.19;5113041;28;20036;-60
2022/05/24 09:39:42;;;;;;;7.03;2.80;;;;;;;25.78;38.24;96195.66;5113063;28;20023;-61
2022/05/24 09:42:24;;;;;;;7.28;2.50;;;;;;;25.64;39.21;96189.91;5112946;28;20381;-62
2022/05/24 09:45:12;;;;;;;4.70;2.92;;;;;;;25.71;39.60;96190.13;5112991;28;20031;-61
2022/05/24 09:47:44;;;;;;;3.25;2.20;;;;;;;25.64;37.51;96191.78;5113043;28;20055;-60
2022/05/24 09:50:24;;;;;;;7.28;2.25;;;;;;;24.81;38.55;96181.41;5113008;28;20114;-60
2022/05/24 09:53:03;;;;;;;7.28;2.60;;;;;;;24.61;39.18;96184.28;5114798;28;21174;-61
2022/05/24 09:55:30;;;;;;;8.88;2.65;;;;;;;24.83;39.70;96188.28;5116783;27;20107;-62
2022/05/24 09:58:15;;;;;;;6.68;2.60;;;;;;;25.11;40.33;96184.66;5116711;28;20144;-61
2022/05/24 10:01:11;;;;;;;8.88;2.30;;;;;;;24.95;40.08;96175.50;5116697;28;20485;-60
2022/05/24 10:03:44;;;;;;;3.88;2.35;;;;;;;25.10;41.40;96173.09;5108362;28;20066;-60
2022/05/24 10:06:20;;;;;;;3.85;2.30;;;;;;;25.50;40.78;96172.63;5115247;28;20023;-62
2022/05/24 10:08:53;;;;;;;5.55;1.80;;;;;;;25.86;41.58;96174.25;5116485;28;20400;-62
2022/05/24 10:11:25;;;;;;;6.80;2.60;;;;;;;26.15;41.06;96177.50;5116371;28;20027;-62
2022/05/24 10:13:56;;;;;;;4.63;2.50;;;;;;;26.36;39.05;96187.75;5116400;28;20032;-62
2022/05/24 10:16:46;;;;;;;6.43;2.10;;;;;;;26.32;39.73;96184.56;5116215;28;20031;-60
2022/05/24 10:19:42;;;;;;;10.73;2.08;;;;;;;26.18;38.42;96195.88;5116331;28;20035;-60
2022/05/24 10:22:35;;;;;;;4.70;2.30;;;;;;;26.05;39.49;96185.66;5116083;28;20031;-60
2022/05/24 10:25:19;;;;;;;4.07;2.38;;;;;;;26.24;40.81;96176.47;5084571;28;20558;-61
2022/05/24 10:27:51;;;;;;;7.03;2.10;;;;;;;26.46;36.39;96177.69;5116125;28;20031;-62
2022/05/24 10:30:27;;;;;;;5.70;2.45;;;;;;;26.56;37.98;96179.38;5116026;28;20020;-60
2022/05/24 10:39:14;;;;;;;6.15;2.67;;;;;;;26.35;37.75;96184.25;5108619;28;20042;-62
2022/05/24 10:42:01;;;;;;;5.28;2.13;;;;;;;26.39;37.85;96182.03;5115818;28;20602;-61
2022/05/24 10:44:48;;;;;;;6.75;2.25;;;;;;;25.88;38.40;96169.56;5115793;28;20031;-59
2022/05/24 10:47:29;;;;;;;4.13;2.70;;;;;;;24.85;39.50;96169.41;5115832;28;20035;-62
2022/05/24 10:50:01;;;;;;;6.50;2.58;;;;;;;24.35;41.68;96161.03;5115765;28;20024;-61
2022/05/24 10:52:34;;;;;;;7.63;2.25;;;;;;;24.33;42.69;96153.19;5115611;28;20051;-60
2022/05/24 10:55:15;;;;;;;8.15;2.30;;;;;;;24.02;42.10;96156.19;5115613;28;20481;-60
2022/05/24 10:57:44;;;;;;;;;;;;;;;23.93;42.22;96152.59;5115988;28;20112;-62
2022/05/24 11:00:17;;;;;;;4.70;2.22;;;;;;;24.04;43.55;96148.03;5115407;28;20293;-62
2022/05/24 11:03:08;;;;;;;4.32;2.08;;;;;;;23.99;42.95;96145.84;5115256;28;20035;-60
2022/05/24 11:05:44;;;;;;;8.75;2.58;;;;;;;24.35;43.01;96143.16;5114882;28;20059;-62
2022/05/24 11:08:22;;;;;;;10.30;2.40;;;;;;;24.65;43.67;96148.22;5115381;27;20398;-61
2022/05/24 11:10:50;;;;;;;2.60;1.85;;;;;;;24.81;40.27;96141.31;5115385;28;20110;-61
2022/05/24 11:13:23;;;;;;;3.58;1.90;;;;;;;24.83;40.80;96129.44;5115192;28;20133;-62
2022/05/24 11:16:20;;;;;;;10.75;2.13;;;;;;;25.18;41.97;96134.00;5114087;28;20381;-60
2022/05/24 11:18:46;;;;;;;5.70;1.83;;;;;;;25.54;39.86;96131.13;5072451;28;20394;-62
2022/05/24 11:21:22;;;;;;;3.92;2.40;;;;;;;25.77;40.06;96132.38;5072479;28;20036;-61
2022/05/24 11:24:02;;;;;;;5.22;2.22;;;;;;;25.63;39.74;96107.06;5072278;28;20422;-61
2022/05/24 11:26:34;;;;;;;5.32;2.28;;;;;;;25.59;38.39;96103.88;5072383;28;20067;-62
2022/05/24 11:29:30;;;;;;;6.22;1.88;;;;;;;25.53;39.19;96100.00;5071841;28;20037;-61
2022/05/24 11:32:05;;;;;;;6.22;2.03;;;;;;;25.59;39.21;96093.16;5071407;28;20052;-62
2022/05/24 11:34:38;;;;;;;6.78;2.13;;;;;;;25.59;37.89;96106.53;5072064;28;20150;-62
2022/05/24 11:37:25;;;;;;;4.60;1.90;;;;;;;25.35;38.01;96103.63;5071881;28;20024;-62
2022/05/24 11:39:53;;;;;;;4.88;2.38;;;;;;;25.23;40.68;96116.47;5071945;28;20037;-62
2022/05/24 11:42:46;;;;;;;6.70;2.30;;;;;;;25.38;39.32;96115.00;5055334;28;20056;-60
2022/05/24 11:45:31;;;;;;;4.68;2.00;;;;;;;25.45;39.25;96130.25;5070409;28;20036;-61
2022/05/24 11:48:08;;;;;;;2.72;1.95;;;;;;;25.35;40.04;96153.66;5071833;28;20448;-62
2022/05/24 11:50:45;;;;;;;6.32;2.13;;;;;;;25.19;39.95;96181.19;5109595;28;20036;-62
2022/05/24 11:53:32;;;;;;;8.05;2.85;;;;;;;25.03;40.47;96214.84;5114489;28;20031;-62
2022/05/24 11:56:00;;;;;;;7.45;2.30;;;;;;;24.70;40.57;96238.66;5114266;28;20024;-61
2022/05/24 11:58:32;;;;;;;9.85;2.53;;;;;;;24.43;41.77;96275.16;5114279;28;20358;-61
2022/05/24 12:01:17;;;;;;;6.57;2.22;;;;;;;23.95;44.66;96315.34;5114416;28;20031;-62
2022/05/24 12:10:20;;;;;;;9.98;4.38;;;;;;;20.63;62.70;96433.81;5114524;28;20092;-63
2022/05/24 12:13:16;;;;;;;9.38;3.55;;;;;;;20.04;62.48;96366.78;5075708;28;20039;-64
2022/05/24 12:15:43;;;;;;;7.55;3.90;;;;;;;19.24;67.18;96297.75;5113407;28;20020;-62
2022/05/24 12:18:09;;;;;;;5.20;2.88;;;;;;;18.64;66.75;96241.25;5113979;28;20032;-62
2022/05/24 12:20:35;;;;;;;6.35;3.65;;;;;;;18.22;68.94;96196.69;5114073;28;20123;-63
2022/05/24 12:23:06;;;;;;;7.97;4.15;;;;;;;18.00;70.96;96195.59;5113868;28;20423;-65